Virgilina, VA (24598)

01:52 AM EDT del 28 Maggio 2015 (GMT -0400)
Oak Hill | | Change Station
CLOSE
Current Station
Stazione meteo personale
Location: Oxford, NC
Altitudine: 499 ft
Stazioni meteo nelle vicinanze

Alt. 499 ft 36.44 °N, 78.73 °W | Updated 46 seconds ago

Sereno
Sereno
69.1 °F
Sembra 69.1 °F
N
2.7
Vento Variabile Vento da Sud

Oggi
Massima -- | Minima -- °F
--% Possibilità di precip.
Ieri
Massima -- | Minima -- °F
Precip. -- in
5:59 AM 8:25 PM
Gobba a ponente, 73% visible
Pressione 30.21 in
Visibilità 10.0 miglia
Nuvole Coperto 11000 ft
Punto di rugiada 67 °F
Umidità 94%
Piovosità 0.00 in
Spessore del manto nevoso Non disponibile.
Raggi UV 0 fuori da 12
Polline 6.80 fuori da 12
Qualità dell'aria Non disponibile.
Flu Activity No Activity
METAR KHNZ 280535Z AUTO 19007KT 10SM OVC110 21/19 A3021 RMK AO2 T02050192

More Conditions Fewer Conditions

Pressione 30.21 in
Visibilità 10.0 miglia
Nuvole Coperto 11000 ft
Punto di rugiada 67 °F
Umidità 94%
Piovosità 0.00 in
Spessore del manto nevoso Non disponibile.
Raggi UV 0 fuori da 12
Polline 6.80 fuori da 12
Qualità dell'aria Non disponibile.
Flu Activity No Activity
METAR KHNZ 280535Z AUTO 19007KT 10SM OVC110 21/19 A3021 RMK AO2 T02050192

More Conditions Fewer Conditions

10-Day Weather Forecast

Almanac

Astronomia

May. 28, 2015 Alba Tramonto
Ora attuale
Crepuscolo civile
Crepuscolo nautico
Crepuscolo astronomico
Luna
Estensione della luce visibile
Lunghezza del giorno
Tomorrow will be .
, % of the Moon is Illuminated

Gli estremi di oggi

State Highs State Lows

Community

WunderPhotos

Upload Photos

1,824,931 foto caricate!

WunderBlogs® & News

Nearby

Qualità dell'aria

  Qualità dell'aria Indice AQ Inquinante
Not available.

Profondità neve

Stazione Profondità Altitudine

Attività sismica

Città  Distanza Mag. Data & Ora
Minimo Magnitudo Mostrato è 2.5.

Temperature delle acque costiere

Località Temperatura

Stations

Stazioni meteo nelle vicinanze

Ubicazione della stazione Temp. Raffreddamento del vento Punto di rugiada Umidità Vento Precip. Alt. Aggiornato Tipo